Time;durP1;ratioP1;P1;durP2;ratioP2;P2;SDS_P1;SDS_P2;PMS_P1;PMS_P2;Temp;Humidity;BMP_temperature;BMP_pressure;BME280_temperature;BME280_humidity;BME280_pressure;Samples;Min_cycle;Max_cycle;Signal;HPM_P1;HPM_P2
2022/02/18 00:00:29;;;;;;;36.55;26.13;;;;;;;5.97;65.21;101195.13;5091668;28;20040;-61
2022/02/18 00:02:55;;;;;;;40.13;26.65;;;;;;;5.96;65.24;101183.00;5094822;28;20073;-61
2022/02/18 00:05:22;;;;;;;41.20;27.52;;;;;;;5.97;64.98;101175.13;5097691;27;20124;-61
2022/02/18 00:07:49;;;;;;;42.58;27.67;;;;;;;5.94;65.20;101192.59;5114906;28;20051;-61
2022/02/18 00:10:16;;;;;;;46.13;27.60;;;;;;;5.91;65.05;101195.31;5115124;28;20066;-61
2022/02/18 00:12:42;;;;;;;38.53;26.27;;;;;;;5.86;65.14;101205.88;5114910;28;20059;-61
2022/02/18 00:15:09;;;;;;;41.13;26.98;;;;;;;5.79;65.05;101206.94;5115330;28;20047;-61
2022/02/18 00:17:38;;;;;;;41.72;27.95;;;;;;;5.73;65.03;101208.81;5115022;28;20179;-61
2022/02/18 00:20:07;;;;;;;41.92;27.75;;;;;;;5.75;64.88;101210.53;5114825;28;20126;-61
2022/02/18 00:22:34;;;;;;;42.15;27.00;;;;;;;5.76;64.76;101212.25;5097307;27;20109;-61
2022/02/18 00:25:02;;;;;;;43.08;27.73;;;;;;;5.75;64.74;101215.75;5094320;28;20213;-61
2022/02/18 00:27:29;;;;;;;46.10;28.85;;;;;;;5.75;64.83;101213.13;5094308;28;20063;-61
2022/02/18 00:29:55;;;;;;;47.33;29.13;;;;;;;5.74;64.87;101214.91;5094272;28;20048;-61
2022/02/18 00:32:22;;;;;;;42.15;27.90;;;;;;;5.72;64.89;101222.72;5094263;28;20047;-61
2022/02/18 00:34:49;;;;;;;48.38;30.20;;;;;;;5.64;64.94;101223.88;5094023;28;20048;-61
2022/02/18 00:37:17;;;;;;;49.22;30.58;;;;;;;5.64;64.97;101226.47;5096321;27;20052;-61
2022/02/18 00:39:44;;;;;;;46.67;28.67;;;;;;;5.56;64.91;101227.53;5108075;28;20040;-61
2022/02/18 00:42:10;;;;;;;49.17;30.65;;;;;;;5.60;64.73;101225.72;5114489;28;20048;-61
2022/02/18 00:44:37;;;;;;;50.30;30.00;;;;;;;5.64;64.76;101219.50;5100803;28;20048;-61
2022/02/18 00:47:05;;;;;;;45.65;30.60;;;;;;;5.63;64.54;101217.78;5108276;28;20043;-62
2022/02/18 00:49:31;;;;;;;45.08;28.50;;;;;;;5.63;64.87;101228.22;5114376;28;20056;-61
2022/02/18 00:51:58;;;;;;;45.33;29.45;;;;;;;5.63;64.65;101227.38;5113136;28;20101;-61
2022/02/18 00:54:25;;;;;;;44.55;28.95;;;;;;;5.62;64.74;101231.69;5104491;27;20499;-61
2022/02/18 00:56:51;;;;;;;44.38;28.23;;;;;;;5.62;64.80;101218.69;5093753;28;20052;-61
2022/02/18 00:59:18;;;;;;;41.97;28.13;;;;;;;5.64;64.92;101236.88;5093770;28;20121;-61
2022/02/18 01:01:45;;;;;;;51.58;29.23;;;;;;;5.63;64.79;101232.56;5099024;28;20040;-61
2022/02/18 01:04:11;;;;;;;48.50;29.20;;;;;;;5.60;64.94;101230.03;5093613;28;20101;-61
2022/02/18 01:06:39;;;;;;;50.83;30.80;;;;;;;5.60;64.93;101230.03;5093543;28;20044;-61
2022/02/18 01:09:07;;;;;;;47.78;28.25;;;;;;;5.59;64.81;101236.13;5093354;28;20052;-61
2022/02/18 01:11:33;;;;;;;42.50;27.90;;;;;;;5.58;65.05;101237.91;5093170;28;20557;-61
2022/02/18 01:14:04;;;;;;;45.00;28.33;;;;;;;5.58;64.98;101232.69;5093560;28;20412;-61
2022/02/18 01:16:31;;;;;;;43.85;28.40;;;;;;;5.55;64.89;101233.63;5093701;28;20040;-61
2022/02/18 01:18:58;;;;;;;48.17;28.23;;;;;;;5.52;65.06;101241.53;5093257;28;20109;-61
2022/02/18 01:21:25;;;;;;;50.70;29.80;;;;;;;5.53;65.19;101242.38;5113102;28;20047;-61
2022/02/18 01:23:52;;;;;;;49.33;29.65;;;;;;;5.56;64.93;101234.47;5113787;28;20044;-61
2022/02/18 01:26:19;;;;;;;49.55;31.80;;;;;;;5.55;65.18;101246.66;5113564;28;20491;-61
2022/02/18 01:28:46;;;;;;;47.03;30.15;;;;;;;5.56;65.15;101255.28;5111928;28;20048;-61
2022/02/18 01:31:13;;;;;;;50.90;32.00;;;;;;;5.58;65.23;101255.28;5113587;28;20449;-61
2022/02/18 01:33:40;;;;;;;46.85;29.67;;;;;;;5.53;65.26;101247.59;5113562;28;20044;-61
2022/02/18 01:36:07;;;;;;;45.13;29.45;;;;;;;5.49;65.39;101270.25;5113265;28;20059;-61
2022/02/18 01:38:33;;;;;;;45.88;29.42;;;;;;;5.46;65.42;101265.13;5113380;28;20498;-61
2022/02/18 01:41:00;;;;;;;50.65;31.13;;;;;;;5.36;65.50;101272.31;5113401;28;20051;-61
2022/02/18 01:43:26;;;;;;;51.10;33.10;;;;;;;5.32;65.35;101275.03;5113199;28;20388;-61
2022/02/18 01:45:53;;;;;;;49.15;31.00;;;;;;;5.33;65.35;101271.53;5110152;27;20047;-61
2022/02/18 01:48:20;;;;;;;47.85;29.63;;;;;;;5.30;64.99;101275.06;5113214;28;20044;-61
2022/02/18 01:50:46;;;;;;;46.72;30.00;;;;;;;5.28;65.07;101270.81;5113273;28;20047;-61
2022/02/18 01:53:13;;;;;;;50.90;31.08;;;;;;;5.24;65.13;101277.84;5113271;28;20453;-61
2022/02/18 01:55:40;;;;;;;50.53;30.80;;;;;;;5.25;64.92;101286.50;5113105;28;20043;-61
2022/02/18 01:58:07;;;;;;;47.42;29.73;;;;;;;5.20;65.04;101297.03;5112984;28;20043;-61
2022/02/18 02:00:34;;;;;;;44.10;29.42;;;;;;;5.19;65.01;101287.50;5111839;28;20051;-61
2022/02/18 02:03:02;;;;;;;51.20;31.30;;;;;;;5.22;64.77;101283.09;5112650;28;20077;-61
2022/02/18 02:05:29;;;;;;;51.25;30.40;;;;;;;5.23;64.73;101281.31;5113047;28;20040;-61
2022/02/18 02:07:59;;;;;;;46.72;30.35;;;;;;;5.25;64.94;101276.09;5112914;28;20050;-61
2022/02/18 02:10:25;;;;;;;48.60;29.40;;;;;;;5.26;64.74;101280.38;5113218;28;20047;-61
2022/02/18 02:12:53;;;;;;;50.67;31.27;;;;;;;5.26;64.98;101277.78;5112385;28;20066;-61
2022/02/18 02:15:25;;;;;;;44.75;29.65;;;;;;;5.24;65.00;101277.84;5112940;28;20097;-61
2022/02/18 02:17:52;;;;;;;50.05;30.13;;;;;;;5.23;65.10;101263.97;5112762;28;20054;-61
2022/02/18 02:20:20;;;;;;;46.92;29.67;;;;;;;5.23;65.17;101261.38;5092866;28;20123;-61
2022/02/18 02:22:47;;;;;;;46.80;29.05;;;;;;;5.21;65.19;101252.75;5092402;28;20051;-61
2022/02/18 02:25:14;;;;;;;50.20;31.60;;;;;;;5.22;65.20;101240.63;5092502;28;20082;-61
2022/02/18 02:27:41;;;;;;;47.85;30.02;;;;;;;5.20;64.99;101247.59;5092355;28;20052;-61
2022/02/18 02:30:10;;;;;;;49.97;30.63;;;;;;;5.17;64.91;101243.31;5092426;28;20044;-61
2022/02/18 02:32:37;;;;;;;49.33;30.50;;;;;;;5.17;65.08;101235.53;5092526;28;20054;-61
2022/02/18 02:35:05;;;;;;;43.45;29.13;;;;;;;5.17;64.96;101240.72;5092056;28;20052;-61
2022/02/18 02:37:32;;;;;;;50.85;30.20;;;;;;;5.10;65.33;101246.97;5092288;28;20060;-61
2022/02/18 02:39:59;;;;;;;51.17;30.88;;;;;;;5.08;65.34;101251.38;5092222;28;20098;-61
2022/02/18 02:42:25;;;;;;;51.70;31.95;;;;;;;5.09;65.06;101244.41;5092344;28;20040;-61
2022/02/18 02:44:52;;;;;;;49.95;29.67;;;;;;;5.06;65.09;101245.34;5092158;28;20106;-61
2022/02/18 02:47:18;;;;;;;50.20;28.98;;;;;;;5.06;65.15;101256.59;5092224;28;20052;-62
2022/02/18 02:49:46;;;;;;;45.00;29.58;;;;;;;5.04;65.16;101263.59;5092181;28;20044;-61
2022/02/18 02:52:12;;;;;;;51.60;29.90;;;;;;;5.03;65.08;101267.09;5091802;28;20052;-61
2022/02/18 02:54:39;;;;;;;46.35;29.08;;;;;;;4.97;65.62;101274.19;5092059;28;20044;-61
2022/02/18 02:57:06;;;;;;;48.33;30.60;;;;;;;5.02;65.37;101283.59;5092148;28;20485;-61
2022/02/18 02:59:33;;;;;;;53.00;30.50;;;;;;;5.01;65.27;101281.88;5091986;28;20481;-61
2022/02/18 03:01:59;;;;;;;67.07;32.22;;;;;;;4.98;65.21;101281.97;5091982;28;20052;-61
2022/02/18 03:04:26;;;;;;;48.28;29.98;;;;;;;4.96;65.02;101288.09;5092160;28;20385;-61
2022/02/18 03:06:53;;;;;;;48.20;28.52;;;;;;;4.93;65.24;101277.75;5092061;28;20122;-61
2022/02/18 03:09:40;;;;;;;48.08;29.70;;;;;;;4.92;65.10;101284.69;5091492;28;20480;-61
2022/02/18 03:12:07;;;;;;;45.28;29.40;;;;;;;4.93;65.23;101289.03;5091578;28;20052;-61
2022/02/18 03:14:33;;;;;;;54.22;33.08;;;;;;;4.97;65.09;101288.03;5091914;28;20074;-61
2022/02/18 03:17:00;;;;;;;53.08;32.08;;;;;;;5.06;65.38;101285.22;5095625;28;20051;-61
2022/02/18 03:19:27;;;;;;;55.80;32.78;;;;;;;5.20;65.31;101290.06;5095773;28;20488;-61
2022/02/18 03:21:56;;;;;;;64.55;35.47;;;;;;;5.25;65.65;101286.50;5095541;28;20071;-61
2022/02/18 03:24:23;;;;;;;56.42;34.25;;;;;;;5.33;65.81;101289.75;5102885;27;20066;-61
2022/02/18 03:26:49;;;;;;;59.22;35.95;;;;;;;5.37;66.11;101293.97;5115937;28;20039;-61
2022/02/18 03:29:18;;;;;;;60.75;35.58;;;;;;;5.38;66.34;101296.56;5115875;28;20048;-61
2022/02/18 03:31:44;;;;;;;60.50;34.67;;;;;;;5.37;66.70;101307.00;5115772;28;20379;-61
2022/02/18 03:34:11;;;;;;;56.00;34.83;;;;;;;5.35;66.84;101301.00;5115901;28;20051;-61
2022/02/18 03:36:37;;;;;;;60.78;33.97;;;;;;;5.32;67.17;101307.13;5115778;28;20453;-61
2022/02/18 03:39:04;;;;;;;53.42;32.80;;;;;;;5.33;67.43;101305.38;5115832;28;20055;-61
2022/02/18 03:41:32;;;;;;;54.40;32.45;;;;;;;5.32;67.52;101304.53;5111313;28;20070;-61
2022/02/18 03:43:59;;;;;;;57.90;32.00;;;;;;;5.32;67.66;101304.53;5095185;28;20044;-61
2022/02/18 03:46:26;;;;;;;56.95;33.55;;;;;;;5.38;67.61;101306.97;5095236;28;20047;-61
2022/02/18 03:48:53;;;;;;;54.95;32.72;;;;;;;5.40;67.63;101312.97;5094963;28;20447;-61
2022/02/18 03:51:19;;;;;;;62.15;33.97;;;;;;;5.44;67.79;101316.34;5095148;28;20051;-62
2022/02/18 03:53:49;;;;;;;58.38;33.85;;;;;;;5.45;67.84;101312.88;5077148;28;20066;-61
2022/02/18 03:56:17;;;;;;;61.50;35.42;;;;;;;5.47;67.96;101315.44;5094897;28;20044;-61
2022/02/18 03:58:44;;;;;;;65.53;37.92;;;;;;;5.48;68.30;101322.34;5094550;28;20039;-61
2022/02/18 04:01:11;;;;;;;62.00;36.70;;;;;;;5.49;68.56;101330.09;5094893;28;20051;-61
2022/02/18 04:03:38;;;;;;;66.88;37.72;;;;;;;5.52;68.69;101329.19;5103138;27;20059;-61
2022/02/18 04:06:04;;;;;;;68.28;38.13;;;;;;;5.56;68.76;101326.47;5111935;28;20051;-61
2022/02/18 04:08:31;;;;;;;67.88;36.65;;;;;;;5.57;69.03;101332.50;5111903;28;20052;-61
2022/02/18 04:10:58;;;;;;;71.78;37.10;;;;;;;5.61;69.07;101328.09;5111566;28;20457;-61
2022/02/18 04:13:24;;;;;;;65.55;36.60;;;;;;;5.61;69.13;101334.16;5109693;28;20047;-61
2022/02/18 04:15:51;;;;;;;71.65;39.70;;;;;;;5.58;69.53;101326.41;5091069;28;20481;-61
2022/02/18 04:18:17;;;;;;;69.20;37.78;;;;;;;5.61;69.56;101330.69;5091197;28;20078;-61
2022/02/18 04:20:44;;;;;;;69.55;36.67;;;;;;;5.62;69.92;101335.84;5091335;28;20129;-61
2022/02/18 04:23:29;;;;;;;73.53;40.65;;;;;;;5.67;69.84;101343.53;5091018;28;20044;-61
2022/02/18 04:25:56;;;;;;;70.72;39.08;;;;;;;5.68;70.00;101343.50;5090831;28;20089;-62
2022/02/18 04:28:22;;;;;;;69.47;38.78;;;;;;;5.70;69.94;101351.25;5090819;28;20048;-61
2022/02/18 04:30:49;;;;;;;73.32;40.45;;;;;;;5.67;70.08;101360.00;5097250;28;20047;-61
2022/02/18 04:33:16;;;;;;;75.38;40.85;;;;;;;5.70;70.28;101352.13;5111571;28;20046;-61
2022/02/18 04:35:44;;;;;;;73.60;40.15;;;;;;;5.73;70.28;101359.00;5111315;28;20051;-61
2022/02/18 04:38:11;;;;;;;75.18;40.25;;;;;;;5.72;70.43;101363.34;5111557;28;20055;-61
2022/02/18 04:40:38;;;;;;;73.93;41.45;;;;;;;5.72;70.35;101365.94;5111390;28;20108;-61
2022/02/18 04:43:04;;;;;;;72.72;39.03;;;;;;;5.73;70.31;101361.63;5110974;28;20071;-61
2022/02/18 04:45:31;;;;;;;78.57;39.92;;;;;;;5.73;70.30;101357.25;5111097;28;20069;-62
2022/02/18 04:47:58;;;;;;;79.55;41.88;;;;;;;5.70;70.50;101353.88;5109295;28;20044;-61
2022/02/18 04:50:25;;;;;;;79.35;41.25;;;;;;;5.72;70.46;101355.53;5090526;28;20044;-62
2022/02/18 04:52:51;;;;;;;77.95;41.03;;;;;;;5.72;70.54;101367.72;5090535;28;20048;-61
2022/02/18 04:55:18;;;;;;;73.95;39.28;;;;;;;5.71;70.57;101360.78;5090691;28;20097;-61
2022/02/18 04:57:46;;;;;;;74.88;39.63;;;;;;;5.71;70.54;101368.59;5090447;28;20455;-62
2022/02/18 05:00:14;;;;;;;76.28;42.58;;;;;;;5.70;70.61;101367.75;5090388;28;20484;-61
2022/02/18 05:02:41;;;;;;;81.28;43.00;;;;;;;5.73;70.50;101367.66;5090282;28;20097;-61
2022/02/18 05:05:08;;;;;;;77.72;40.85;;;;;;;5.73;70.61;101366.81;5091003;28;20086;-61
2022/02/18 05:07:34;;;;;;;85.15;42.33;;;;;;;5.71;70.72;101377.28;5090389;28;20070;-61
2022/02/18 05:10:03;;;;;;;76.15;41.53;;;;;;;5.70;70.62;101370.34;5090282;28;20056;-61
2022/02/18 05:12:29;;;;;;;76.00;41.45;;;;;;;5.69;70.54;101363.44;5089759;28;20048;-61
2022/02/18 05:14:56;;;;;;;76.40;41.25;;;;;;;5.72;70.64;101362.50;5089845;28;20048;-61
2022/02/18 05:17:23;;;;;;;71.68;40.13;;;;;;;5.69;70.56;101366.03;5089991;28;20051;-61
2022/02/18 05:19:50;;;;;;;82.15;42.63;;;;;;;5.69;70.47;101365.19;5090153;28;20044;-61
2022/02/18 05:22:16;;;;;;;74.00;40.60;;;;;;;5.68;70.57;101372.13;5108660;28;20051;-61
2022/02/18 05:24:43;;;;;;;79.68;42.55;;;;;;;5.67;70.67;101373.03;5110434;28;20058;-61
2022/02/18 05:27:09;;;;;;;75.28;39.58;;;;;;;5.64;70.41;101372.28;5110600;28;20364;-61
2022/02/18 05:29:36;;;;;;;73.22;40.00;;;;;;;5.58;70.58;101370.66;5110266;28;20055;-61
2022/02/18 05:32:03;;;;;;;68.68;36.40;;;;;;;5.51;70.46;101376.91;5110041;28;20100;-61
2022/02/18 05:34:30;;;;;;;63.88;36.47;;;;;;;5.44;70.63;101378.00;5109997;28;20048;-61
2022/02/18 05:36:56;;;;;;;70.00;36.05;;;;;;;5.40;70.31;101379.81;5096588;28;20097;-61
2022/02/18 05:39:23;;;;;;;63.45;35.42;;;;;;;5.37;70.27;101378.13;5089265;28;20051;-61
2022/02/18 05:41:50;;;;;;;72.03;37.60;;;;;;;5.36;70.15;101384.22;5089791;28;20051;-62
2022/02/18 05:44:17;;;;;;;70.95;37.67;;;;;;;5.36;69.99;101379.03;5089675;28;20044;-61
2022/02/18 05:46:44;;;;;;;67.68;35.85;;;;;;;5.29;69.96;101377.44;5089753;28;20044;-59
2022/02/18 05:49:11;;;;;;;63.45;35.80;;;;;;;5.25;70.01;101381.03;5089484;28;20106;-59
2022/02/18 05:51:37;;;;;;;68.40;38.08;;;;;;;5.23;69.62;101393.22;5088946;28;20051;-61
2022/02/18 05:54:04;;;;;;;69.22;35.33;;;;;;;5.19;69.60;101396.78;5089201;28;20450;-59
2022/02/18 05:56:31;;;;;;;67.60;35.20;;;;;;;5.13;69.41;101397.78;5089349;28;20097;-59
2022/02/18 05:58:58;;;;;;;65.00;35.58;;;;;;;5.09;69.41;101397.88;5089169;28;20048;-59
2022/02/18 06:01:25;;;;;;;71.15;36.92;;;;;;;5.04;68.98;101392.78;5089188;28;20043;-59
2022/02/18 06:03:51;;;;;;;68.93;35.53;;;;;;;4.99;68.95;101399.84;5089131;28;20047;-59
2022/02/18 06:06:18;;;;;;;70.18;35.85;;;;;;;5.02;68.92;101385.03;5089292;28;20484;-61
2022/02/18 06:08:44;;;;;;;64.15;35.67;;;;;;;5.00;68.62;101397.22;5089102;28;20101;-60
2022/02/18 06:11:11;;;;;;;64.50;35.25;;;;;;;4.98;68.39;101398.16;5089175;28;20480;-61
2022/02/18 06:13:37;;;;;;;66.30;35.80;;;;;;;4.97;68.23;101396.44;5089223;28;20102;-61
2022/02/18 06:16:04;;;;;;;68.18;35.05;;;;;;;5.00;67.85;101383.34;5088936;28;20044;-61
2022/02/18 06:18:31;;;;;;;64.25;35.40;;;;;;;4.99;67.81;101384.22;5089324;28;20059;-61
2022/02/18 06:20:58;;;;;;;65.55;35.63;;;;;;;4.99;67.89;101390.31;5108866;28;20054;-61
2022/02/18 06:23:24;;;;;;;66.03;33.53;;;;;;;4.96;67.50;101397.31;5103865;28;20044;-61
2022/02/18 06:25:51;;;;;;;71.03;34.58;;;;;;;4.96;67.58;101389.53;5088969;28;20044;-61
2022/02/18 06:28:18;;;;;;;73.88;35.65;;;;;;;5.00;67.59;101385.94;5088975;28;20496;-60
2022/02/18 06:30:44;;;;;;;67.32;34.25;;;;;;;5.00;67.40;101384.22;5089370;28;20553;-62
2022/02/18 06:33:11;;;;;;;63.42;31.45;;;;;;;4.99;67.60;101386.84;5089311;28;20048;-60
2022/02/18 06:35:39;;;;;;;62.28;32.90;;;;;;;5.02;67.21;101386.78;5088811;28;20500;-61
2022/02/18 06:38:10;;;;;;;60.55;31.17;;;;;;;5.03;67.17;101394.53;5088871;28;20052;-61
2022/02/18 06:40:38;;;;;;;63.00;32.97;;;;;;;5.05;67.18;101397.09;5088216;28;20052;-61
2022/02/18 06:43:04;;;;;;;60.50;33.20;;;;;;;5.09;67.30;101393.53;5088728;28;20048;-62
2022/02/18 06:45:31;;;;;;;60.47;34.80;;;;;;;5.11;67.25;101389.16;5089235;28;20098;-60
2022/02/18 06:47:58;;;;;;;60.20;34.10;;;;;;;5.16;67.10;101392.50;5088768;28;20097;-60
2022/02/18 06:50:24;;;;;;;57.50;32.17;;;;;;;5.19;67.25;101389.84;5091565;28;20078;-60
2022/02/18 06:52:51;;;;;;;59.72;34.25;;;;;;;5.23;67.00;101404.50;5092539;28;20048;-60
2022/02/18 06:55:24;;;;;;;60.33;33.95;;;;;;;5.25;67.17;101401.00;5092395;28;20102;-61
2022/02/18 06:57:53;;;;;;;69.40;34.13;;;;;;;5.27;67.39;101409.59;5108824;28;20051;-60
2022/02/18 07:00:21;;;;;;;73.13;35.25;;;;;;;5.25;67.24;101427.03;5113017;28;20070;-62
2022/02/18 07:02:47;;;;;;;68.47;33.28;;;;;;;5.21;67.26;101441.84;5112923;28;20155;-60
2022/02/18 07:05:15;;;;;;;65.22;33.58;;;;;;;5.21;67.34;101457.47;5106135;28;20480;-60
2022/02/18 07:07:43;;;;;;;67.10;32.15;;;;;;;5.36;66.70;101464.91;5092365;28;20578;-60
2022/02/18 07:10:11;;;;;;;54.58;30.23;;;;;;;5.39;66.38;101472.63;5091915;28;20488;-60
2022/02/18 07:12:39;;;;;;;47.33;28.88;;;;;;;5.47;66.50;101472.47;5092152;28;20055;-59
2022/02/18 07:15:07;;;;;;;57.13;30.33;;;;;;;5.53;66.31;101471.47;5108783;28;20101;-60
2022/02/18 07:17:35;;;;;;;54.90;31.05;;;;;;;5.58;66.36;101479.19;5112210;28;20044;-60
2022/02/18 07:20:03;;;;;;;56.55;32.38;;;;;;;5.65;66.20;101475.50;5112052;28;20097;-60
2022/02/18 07:22:32;;;;;;;55.15;32.00;;;;;;;5.68;66.24;101484.09;5112076;28;20455;-60
2022/02/18 07:24:59;;;;;;;56.22;32.95;;;;;;;5.78;66.17;101482.16;5112426;28;20081;-60
2022/02/18 07:27:25;;;;;;;62.30;34.05;;;;;;;5.91;66.11;101495.72;5109738;28;20077;-60
2022/02/18 07:29:52;;;;;;;58.13;34.08;;;;;;;6.07;65.90;101491.00;5108848;28;20047;-60
2022/02/18 07:32:24;;;;;;;68.47;35.33;;;;;;;6.24;65.82;101494.94;5111926;28;20039;-60
2022/02/18 07:34:51;;;;;;;67.35;34.55;;;;;;;6.40;65.52;101495.34;5109808;28;20040;-60
2022/02/18 07:37:18;;;;;;;65.22;35.15;;;;;;;6.54;65.49;101496.69;5112067;28;20502;-60
2022/02/18 07:39:44;;;;;;;70.78;34.00;;;;;;;6.66;65.17;101486.81;5111681;28;20039;-60
2022/02/18 07:42:11;;;;;;;61.75;34.55;;;;;;;6.78;65.40;101481.25;5111749;28;20044;-60
2022/02/18 07:44:38;;;;;;;60.60;35.22;;;;;;;6.92;64.95;101496.53;5111746;28;20473;-60
2022/02/18 07:47:04;;;;;;;60.03;34.95;;;;;;;7.10;65.05;101502.09;5108590;27;20461;-60
2022/02/18 07:49:47;;;;;;;63.17;33.97;;;;;;;7.16;65.12;101479.28;5108650;28;20101;-60
2022/02/18 07:52:17;;;;;;;59.70;35.03;;;;;;;7.30;65.03;101478.84;5111018;28;20043;-60
2022/02/18 07:54:43;;;;;;;59.85;33.78;;;;;;;7.48;65.04;101487.84;5111661;28;20510;-60
2022/02/18 07:57:10;;;;;;;61.33;33.65;;;;;;;7.66;64.83;101485.56;5111269;28;20058;-60
2022/02/18 07:59:37;;;;;;;60.75;35.40;;;;;;;7.75;64.71;101487.88;5111879;28;20056;-60
2022/02/18 08:02:05;;;;;;;53.35;31.65;;;;;;;7.89;64.56;101490.03;5109494;28;20047;-60
2022/02/18 08:04:32;;;;;;;56.22;32.78;;;;;;;8.04;64.33;101483.44;5111852;28;20040;-60
2022/02/18 08:07:04;;;;;;;54.47;34.25;;;;;;;8.11;64.48;101484.06;5110790;28;20054;-60
2022/02/18 08:09:33;;;;;;;55.33;35.03;;;;;;;8.24;64.38;101493.22;5111562;28;20105;-60
2022/02/18 08:12:00;;;;;;;56.95;33.88;;;;;;;8.31;64.61;101502.53;5110837;28;20059;-60
2022/02/18 08:14:27;;;;;;;56.58;32.72;;;;;;;8.47;64.32;101522.97;5111406;28;20115;-60
2022/02/18 08:16:54;;;;;;;57.15;32.38;;;;;;;8.61;64.16;101525.94;5092049;28;20101;-60
2022/02/18 08:19:20;;;;;;;54.42;33.15;;;;;;;8.76;63.94;101515.81;5090812;28;20077;-60
2022/02/18 08:21:47;;;;;;;55.90;34.25;;;;;;;8.81;64.17;101527.84;5109824;28;20043;-60
2022/02/18 08:24:18;;;;;;;56.97;34.13;;;;;;;8.95;63.85;101526.44;5111209;28;20044;-60
2022/02/18 08:26:46;;;;;;;58.05;35.80;;;;;;;8.91;64.03;101530.97;5111094;28;20047;-60
2022/02/18 08:29:14;;;;;;;59.40;36.17;;;;;;;8.88;64.42;101533.69;5110080;28;20040;-60
2022/02/18 08:31:42;;;;;;;62.42;37.30;;;;;;;8.99;63.75;101531.53;5111219;28;20434;-60
2022/02/18 08:34:08;;;;;;;61.03;36.85;;;;;;;9.17;63.92;101536.13;5108180;28;20044;-60
2022/02/18 08:36:35;;;;;;;57.92;36.17;;;;;;;9.29;63.90;101535.66;5090580;28;20105;-60
2022/02/18 08:39:06;;;;;;;62.35;37.17;;;;;;;9.34;63.81;101536.34;5090107;28;20121;-60
2022/02/18 08:41:34;;;;;;;63.72;38.60;;;;;;;9.38;63.91;101535.28;5090670;28;20048;-60
2022/02/18 08:44:01;;;;;;;67.68;40.63;;;;;;;9.46;63.55;101533.25;5090382;28;20048;-60
2022/02/18 08:46:30;;;;;;;65.65;41.67;;;;;;;9.58;63.45;101546.78;5090396;28;20131;-61
2022/02/18 08:48:57;;;;;;;73.07;42.38;;;;;;;9.69;63.28;101541.97;5089672;28;20082;-60
2022/02/18 08:51:25;;;;;;;70.53;42.05;;;;;;;9.82;62.84;101531.81;5094481;28;20055;-59
2022/02/18 08:53:51;;;;;;;73.15;44.88;;;;;;;9.96;63.04;101524.22;5089880;28;20106;-60
2022/02/18 08:56:18;;;;;;;67.65;40.55;;;;;;;10.08;62.18;101507.16;5090254;28;20101;-60
2022/02/18 08:58:45;;;;;;;73.47;42.70;;;;;;;10.32;61.71;101511.41;5089858;28;20545;-60
2022/02/18 09:01:11;;;;;;;72.70;42.47;;;;;;;10.48;61.30;101511.63;5089976;28;20055;-60
2022/02/18 09:03:38;;;;;;;71.82;41.28;;;;;;;10.54;61.22;101512.22;5089872;28;20557;-60
2022/02/18 09:06:06;;;;;;;72.38;42.33;;;;;;;10.73;60.62;101506.16;5095537;28;20856;-60
2022/02/18 09:08:32;;;;;;;74.60;42.05;;;;;;;10.94;60.16;101515.69;5109760;28;20047;-63
2022/02/18 09:10:59;;;;;;;75.43;42.10;;;;;;;11.13;59.86;101519.22;5105304;28;20047;-60
2022/02/18 09:13:26;;;;;;;71.80;41.90;;;;;;;11.34;59.44;101512.97;5108547;28;20171;-60
2022/02/18 09:15:53;;;;;;;73.63;41.70;;;;;;;11.50;58.94;101505.19;5110759;27;20051;-60
2022/02/18 09:18:20;;;;;;;71.25;41.50;;;;;;;11.69;58.30;101493.78;5109759;28;20052;-60
2022/02/18 09:20:48;;;;;;;72.80;42.33;;;;;;;11.87;57.80;101494.63;5108584;28;20043;-60
2022/02/18 09:23:16;;;;;;;70.68;42.50;;;;;;;11.93;57.79;101497.84;5109389;28;20052;-65
2022/02/18 09:25:43;;;;;;;71.07;41.83;;;;;;;12.17;56.98;101504.59;5109468;28;20043;-61
2022/02/18 09:28:10;;;;;;;71.05;40.75;;;;;;;12.36;56.73;101507.94;5109343;28;20449;-60
2022/02/18 09:30:43;;;;;;;81.20;48.13;;;;;;;12.47;56.35;101531.09;5104608;28;20134;-60
2022/02/18 09:33:16;;;;;;;73.72;42.10;;;;;;;12.71;56.18;101528.13;5108987;28;20498;-60
2022/02/18 09:35:43;;;;;;;68.43;41.83;;;;;;;12.80;56.09;101535.53;5091287;28;20054;-66
2022/02/18 09:38:11;;;;;;;69.45;40.30;;;;;;;12.93;55.59;101514.63;5109240;28;20093;-61
2022/02/18 09:40:40;;;;;;;68.20;41.20;;;;;;;13.08;54.97;101499.78;5109108;28;20040;-60
2022/02/18 09:43:08;;;;;;;70.38;39.60;;;;;;;13.13;54.82;101492.47;5105942;28;20100;-60
2022/02/18 09:45:35;;;;;;;69.18;41.38;;;;;;;13.21;54.47;101490.25;5109467;28;20069;-61
2022/02/18 09:48:02;;;;;;;78.10;44.15;;;;;;;13.35;54.23;101500.00;5109258;28;20120;-60
2022/02/18 09:50:29;;;;;;;73.22;43.10;;;;;;;13.45;54.08;101508.28;5108507;28;20051;-60
2022/02/18 09:53:16;;;;;;;71.70;42.78;;;;;;;13.47;54.08;101516.09;5107074;28;20198;-60
2022/02/18 09:55:43;;;;;;;71.55;41.50;;;;;;;13.53;53.88;101523.69;5109253;28;20093;-60
2022/02/18 09:58:22;;;;;;;74.45;44.10;;;;;;;13.66;53.42;101529.97;5109066;28;20040;-60
2022/02/18 10:00:53;;;;;;;71.35;41.13;;;;;;;13.87;53.27;101538.41;5106519;28;20085;-60
2022/02/18 10:03:20;;;;;;;75.70;43.38;;;;;;;14.00;53.07;101532.44;5108652;28;20047;-60
2022/02/18 10:05:48;;;;;;;68.85;43.30;;;;;;;14.14;52.86;101531.63;5109339;28;20052;-60
2022/02/18 10:08:18;;;;;;;68.30;42.75;;;;;;;14.26;52.63;101532.66;5097871;28;20044;-60
2022/02/18 10:11:05;;;;;;;74.28;44.95;;;;;;;14.31;52.78;101520.91;5108816;28;20384;-60
2022/02/18 10:13:38;;;;;;;76.95;46.80;;;;;;;14.33;52.60;101526.94;5108770;28;20055;-60
2022/02/18 10:16:16;;;;;;;70.13;42.03;;;;;;;14.34;52.82;101522.53;5108887;28;20488;-60
2022/02/18 10:18:57;;;;;;;68.40;41.05;;;;;;;14.49;52.50;101518.13;5106692;28;20074;-60
2022/02/18 10:21:30;;;;;;;72.03;42.55;;;;;;;14.41;52.43;101515.94;5109085;28;20051;-60
2022/02/18 10:24:12;;;;;;;71.05;44.17;;;;;;;14.54;52.30;101524.78;5089633;28;20048;-60
2022/02/18 10:26:45;;;;;;;70.47;41.78;;;;;;;14.47;52.94;101518.19;5109083;28;20043;-60
2022/02/18 10:29:25;;;;;;;64.45;40.80;;;;;;;14.70;52.09;101526.53;5109403;28;20055;-60
2022/02/18 10:32:12;;;;;;;73.43;42.45;;;;;;;14.67;52.36;101535.50;5108743;28;20073;-61
2022/02/18 10:34:56;;;;;;;69.18;41.85;;;;;;;14.84;52.20;101539.75;5108766;28;20043;-60
2022/02/18 10:37:26;;;;;;;73.95;45.38;;;;;;;14.92;51.80;101538.41;5099617;28;20101;-60
2022/02/18 10:40:10;;;;;;;73.63;44.17;;;;;;;14.47;53.33;101528.75;5106689;28;20063;-60
2022/02/18 10:42:38;;;;;;;65.95;42.30;;;;;;;14.76;52.78;101523.50;5108176;28;20128;-60
2022/02/18 10:45:11;;;;;;;70.85;43.55;;;;;;;14.90;52.03;101521.81;5107596;28;20059;-60
2022/02/18 10:47:40;;;;;;;47.38;28.48;;;;;;;15.15;51.90;101516.66;5107840;28;20048;-67
2022/02/18 10:50:24;;;;;;;36.70;22.48;;;;;;;15.14;51.91;101514.13;5107344;28;20075;-60
2022/02/18 10:53:10;;;;;;;34.65;19.90;;;;;;;15.03;52.35;101493.66;5108816;28;20449;-62
2022/02/18 10:55:56;;;;;;;29.55;19.45;;;;;;;15.35;51.36;101473.09;5107666;28;20051;-62
2022/02/18 10:58:33;;;;;;;31.30;19.38;;;;;;;15.60;50.51;101471.44;5108493;28;20047;-60
2022/02/18 11:01:05;;;;;;;28.13;18.67;;;;;;;15.34;51.17;101462.63;5108694;28;20087;-63
2022/02/18 11:03:32;;;;;;;28.40;19.10;;;;;;;15.79;49.98;101441.13;5108395;28;20044;-61
2022/02/18 11:06:21;;;;;;;32.92;19.13;;;;;;;15.05;51.66;101452.13;5107827;28;20522;-61
2022/02/18 11:08:54;;;;;;;31.90;20.25;;;;;;;15.16;51.41;101459.34;5108291;28;20084;-61
2022/02/18 11:11:22;;;;;;;30.25;19.05;;;;;;;15.00;51.24;101472.72;5108219;28;20457;-61
2022/02/18 11:13:50;;;;;;;30.63;19.77;;;;;;;15.00;51.49;101462.13;5108537;28;20093;-61
2022/02/18 11:16:18;;;;;;;14.70;9.68;;;;;;;15.01;51.36;101461.19;5105469;28;20105;-61
2022/02/18 11:18:46;;;;;;;20.48;13.27;;;;;;;15.59;50.29;101463.63;5088223;28;20496;-60